Time;durP1;ratioP1;P1;durP2;ratioP2;P2;SDS_P1;SDS_P2;PMS_P1;PMS_P2;Temp;Humidity;BMP_temperature;BMP_pressure;BME280_temperature;BME280_humidity;BME280_pressure;Samples;Min_cycle;Max_cycle;Signal;HPM_P1;HPM_P2
2022/01/05 00:02:12;;;;;;;;;1.50;1.50;;;;;8.32;55.70;100305.75;4991391;27;45504;-73
2022/01/05 00:04:38;;;;;;;;;1.00;1.00;;;;;8.47;55.57;100339.78;5004550;27;45437;-73
2022/01/05 00:07:04;;;;;;;;;2.00;1.00;;;;;8.47;54.61;100339.78;5022036;27;46053;-71
2022/01/05 00:09:30;;;;;;;;;5.00;2.00;;;;;8.34;57.70;100342.28;5018071;27;45505;-72
2022/01/05 00:12:12;;;;;;;;;2.25;2.25;;;;;8.10;55.06;100315.22;5004417;27;45574;-71
2022/01/05 00:14:38;;;;;;;;;3.00;2.00;;;;;8.28;55.52;100351.84;4970279;27;45566;-70
2022/01/05 00:17:04;;;;;;;;;2.75;2.75;;;;;7.87;54.80;100286.41;4987595;27;45537;-71
2022/01/05 00:19:29;;;;;;;;;2.00;1.75;;;;;8.22;55.42;100363.97;4986718;27;45428;-73
2022/01/05 00:21:56;;;;;;;;;5.00;2.00;;;;;8.19;54.76;100350.94;4988288;27;46472;-73
2022/01/05 00:24:22;;;;;;;;;7.75;2.00;;;;;8.14;56.38;100348.28;5012443;27;45443;-74
2022/01/05 00:26:47;;;;;;;;;4.25;2.00;;;;;8.05;55.50;100340.41;5029902;27;45744;-75
2022/01/05 00:29:22;;;;;;;;;4.25;3.75;;;;;8.06;55.54;100353.44;5007317;27;45796;-70
2022/01/05 00:31:48;;;;;;;;;5.00;2.00;;;;;7.92;55.92;100325.53;4985212;28;45805;-75
2022/01/05 00:34:17;;;;;;;;;1.75;1.00;;;;;8.08;54.86;100350.84;4981420;27;45518;-72
2022/01/05 00:36:43;;;;;;;;;3.00;3.00;;;;;8.01;55.70;100351.69;4985997;27;46695;-70
2022/01/05 00:39:09;;;;;;;;;5.00;3.00;;;;;8.01;55.42;100349.06;5008864;27;45692;-70
2022/01/05 00:41:41;;;;;;;;;4.00;3.00;;;;;7.98;55.40;100359.50;5007915;27;45961;-71
2022/01/05 00:44:07;;;;;;;;;3.25;2.00;;;;;7.82;55.19;100332.44;4982051;27;45758;-73
2022/01/05 00:46:32;;;;;;;;;3.25;3.00;;;;;7.89;53.68;100349.84;4984363;27;45566;-75
2022/01/05 00:48:58;;;;;;;;;4.00;3.00;;;;;7.96;54.83;100377.72;4993374;27;45326;-76
2022/01/05 00:51:24;;;;;;;;;3.00;2.75;;;;;7.93;54.18;100389.88;5035928;27;45385;-73
2022/01/05 00:53:49;;;;;;;;;4.25;2.00;;;;;7.90;55.69;100392.44;4987734;28;45500;-76
2022/01/05 00:56:15;;;;;;;;;3.25;2.25;;;;;7.90;55.32;100389.84;4994493;27;46295;-73
2022/01/05 00:58:41;;;;;;;;;4.00;2.00;;;;;7.91;55.29;100391.59;5023938;27;45350;-73
2022/01/05 01:01:07;;;;;;;;;3.00;3.00;;;;;7.81;55.24;100372.41;4991408;27;45355;-73
2022/01/05 01:03:33;;;;;;;;;2.75;2.75;;;;;7.78;55.54;100385.41;5053215;27;45754;-71
2022/01/05 01:06:03;;;;;;;;;5.50;3.00;;;;;7.86;55.14;100405.47;4985115;27;46850;-73
2022/01/05 01:08:30;;;;;;;;;3.00;1.00;;;;;7.88;54.15;100410.72;4992617;27;45400;-70
2022/01/05 01:10:56;;;;;;;;;2.50;2.00;;;;;7.80;54.82;100394.13;5043311;27;45438;-69
2022/01/05 01:13:22;;;;;;;;;2.50;2.50;;;;;7.84;55.56;100409.78;5075819;27;45498;-70
2022/01/05 01:15:48;;;;;;;;;3.00;3.00;;;;;7.84;55.03;100411.53;4994407;27;45546;-70
2022/01/05 01:18:15;;;;;;;;;4.00;4.00;;;;;7.81;56.44;100417.59;5069259;27;45669;-71
2022/01/05 01:20:41;;;;;;;;;5.00;3.75;;;;;7.83;54.70;100415.88;4996779;27;45947;-71
2022/01/05 01:23:07;;;;;;;;;3.00;2.00;;;;;7.76;55.29;100410.59;4995520;27;45607;-70
2022/01/05 01:25:33;;;;;;;;;4.25;2.00;;;;;7.74;54.74;100407.97;4999910;27;45462;-71
2022/01/05 01:27:59;;;;;;;;;3.25;3.25;;;;;7.78;55.39;100433.22;5051611;27;45507;-70
2022/01/05 01:30:25;;;;;;;;;3.00;2.00;;;;;7.68;54.56;100415.75;5007391;27;45502;-70
2022/01/05 01:32:50;;;;;;;;;3.00;3.00;;;;;7.80;54.73;100444.53;4993494;27;45448;-69
2022/01/05 01:35:16;;;;;;;;;4.50;3.75;;;;;7.78;54.65;100445.38;5026750;27;45361;-72
2022/01/05 01:37:41;;;;;;;;;4.00;2.75;;;;;7.76;54.69;100447.09;4979214;28;45858;-68
2022/01/05 01:40:11;;;;;;;;;3.00;2.00;;;;;7.69;54.42;100446.19;5024989;27;45342;-70
2022/01/05 01:42:36;;;;;;;;;2.25;2.25;;;;;7.72;54.65;100460.97;5000524;27;45654;-70
2022/01/05 01:45:03;;;;;;;;;2.75;2.75;;;;;7.54;55.05;100439.06;4990427;27;46254;-74
2022/01/05 01:47:29;;;;;;;;;4.50;3.00;;;;;7.63;54.42;100457.41;5078665;27;45512;-72
2022/01/05 01:49:54;;;;;;;;;5.00;3.00;;;;;7.62;54.39;100471.31;5094914;27;45344;-71
2022/01/05 01:52:20;;;;;;;;;3.25;2.00;;;;;7.48;55.25;100457.28;5060074;27;45788;-70
2022/01/05 01:54:46;;;;;;;;;1.00;1.00;;;;;7.62;56.34;100479.13;4993085;27;45938;-75
2022/01/05 01:57:14;;;;;;;;;3.00;3.00;;;;;7.60;56.38;100473.03;5071473;27;45608;-71
2022/01/05 01:59:40;;;;;;;;;3.50;3.50;;;;;7.51;54.68;100456.41;4987364;27;45487;-71
2022/01/05 02:02:08;;;;;;;;;2.50;2.50;;;;;7.42;55.11;100454.59;4976056;27;45972;-73
2022/01/05 02:04:35;;;;;;;;;5.00;2.75;;;;;7.59;55.01;100494.75;5103487;27;47612;-74
2022/01/05 02:07:02;;;;;;;;;5.00;3.75;;;;;7.53;55.36;100489.47;5100926;27;45479;-73
2022/01/05 02:09:29;;;;;;;;;4.00;3.50;;;;;7.40;54.30;100472.84;5100439;27;45602;-72
2022/01/05 02:11:55;;;;;;;;;3.25;2.00;;;;;7.59;55.30;100506.88;5100873;27;45311;-71
2022/01/05 02:14:20;;;;;;;;;5.00;2.50;;;;;7.41;55.51;100485.00;5100774;27;46209;-72
2022/01/05 02:16:46;;;;;;;;;5.00;3.25;;;;;7.55;54.84;100511.19;5099897;27;45394;-72
2022/01/05 02:19:16;;;;;;;;;4.00;2.25;;;;;7.48;54.53;100501.56;5096035;27;45340;-73
2022/01/05 02:21:42;;;;;;;;;3.25;2.00;;;;;7.44;54.49;100498.03;5045009;27;45520;-70
2022/01/05 02:24:09;;;;;;;;;1.75;1.75;;;;;7.54;53.56;100524.22;5025684;27;45447;-70
2022/01/05 02:26:37;;;;;;;;;5.75;4.00;;;;;7.51;54.91;100522.44;5071795;27;45365;-70
2022/01/05 02:29:04;;;;;;;;;2.00;2.00;;;;;7.51;56.36;100525.03;5017077;27;45451;-71
2022/01/05 02:31:33;;;;;;;;;2.75;1.75;;;;;7.54;53.92;100530.28;5005925;27;45494;-71
2022/01/05 02:33:58;;;;;;;;;3.00;2.00;;;;;7.53;55.49;100525.06;4993143;27;46266;-70
2022/01/05 02:36:24;;;;;;;;;3.00;3.00;;;;;7.47;55.67;100518.03;4992485;27;45544;-71
2022/01/05 02:38:52;;;;;;;;;3.25;3.25;;;;;7.51;54.30;100522.44;4992877;27;45688;-70
2022/01/05 02:41:19;;;;;;;;;2.50;2.00;;;;;7.48;53.97;100512.00;4993162;27;45679;-69
2022/01/05 02:43:45;;;;;;;;;3.75;2.50;;;;;7.35;53.31;100497.94;4992901;27;46181;-70
2022/01/05 02:46:13;;;;;;;;;2.00;1.75;;;;;7.48;53.96;100526.75;4993196;27;45475;-68
2022/01/05 02:48:39;;;;;;;;;1.25;1.25;;;;;7.44;53.67;100525.84;4993333;27;45409;-72
2022/01/05 02:51:06;;;;;;;;;1.50;1.00;;;;;7.36;54.18;100517.06;4992873;27;45500;-70
2022/01/05 02:53:35;;;;;;;;;4.75;2.00;;;;;7.42;54.38;100530.16;4993783;27;45370;-69
2022/01/05 02:56:01;;;;;;;;;1.50;1.00;;;;;7.41;54.48;100528.41;4992660;27;45505;-71
2022/01/05 02:58:26;;;;;;;;;1.75;1.75;;;;;7.32;53.81;100521.34;4992601;27;45523;-69
2022/01/05 03:00:53;;;;;;;;;2.50;2.50;;;;;7.34;55.53;100534.41;4993006;27;45693;-69
2022/01/05 03:03:19;;;;;;;;;5.25;3.00;;;;;7.31;55.80;100537.84;4991686;27;46182;-68
2022/01/05 03:05:44;;;;;;;;;3.50;2.00;;;;;7.34;54.50;100548.31;4992533;27;45668;-70
2022/01/05 03:08:10;;;;;;;;;2.25;1.00;;;;;7.33;54.50;100546.56;4980931;27;45630;-70
2022/01/05 03:10:36;;;;;;;;;2.00;2.00;;;;;7.29;54.59;100543.91;4988993;27;45556;-70
2022/01/05 03:13:02;;;;;;;;;2.50;2.50;;;;;7.33;55.11;100551.78;4971804;28;46271;-70
2022/01/05 03:15:28;;;;;;;;;4.75;2.50;;;;;7.32;55.82;100559.56;4974285;28;45776;-70
2022/01/05 03:17:53;;;;;;;;;3.25;2.00;;;;;7.31;54.44;100560.41;4992189;27;45406;-70
2022/01/05 03:20:20;;;;;;;;;3.50;1.00;;;;;7.25;54.84;100549.94;4992903;27;45307;-71
2022/01/05 03:22:47;;;;;;;;;5.75;3.00;;;;;7.23;55.24;100562.94;4992451;27;46307;-71
2022/01/05 03:25:16;;;;;;;;;3.00;3.00;;;;;7.25;54.86;100568.16;4992507;27;45863;-70
2022/01/05 03:27:47;;;;;;;;;4.00;2.00;;;;;6.93;55.08;100513.94;4972616;28;45479;-70
2022/01/05 03:30:19;;;;;;;;;2.25;1.75;;;;;7.11;54.87;100555.81;4956191;28;45710;-69
2022/01/05 03:33:08;;;;;;;;;5.50;4.00;;;;;7.06;55.30;100556.63;4964401;28;45949;-73
2022/01/05 03:35:36;;;;;;;;;5.00;3.00;;;;;7.16;54.10;100580.19;4962511;28;45433;-70
2022/01/05 03:38:03;;;;;;;;;4.00;2.50;;;;;7.16;55.14;100585.41;4975575;28;45380;-70
2022/01/05 03:40:30;;;;;;;;;3.50;3.00;;;;;7.10;55.08;100587.94;4988359;27;45501;-73
2022/01/05 03:42:56;;;;;;;;;3.25;3.00;;;;;7.11;54.62;100587.06;4981719;27;46085;-73
2022/01/05 03:45:22;;;;;;;;;3.75;2.00;;;;;7.12;55.20;100601.88;4990976;28;45548;-72
2022/01/05 03:47:48;;;;;;;;;4.00;3.00;;;;;7.05;55.53;100596.53;4979126;28;45512;-72
2022/01/05 03:50:13;;;;;;;;;3.00;2.00;;;;;7.08;54.84;100596.59;4988897;27;45292;-70
2022/01/05 03:52:39;;;;;;;;;1.00;1.00;;;;;7.02;54.50;100594.75;4977922;27;45350;-71
2022/01/05 03:55:06;;;;;;;;;2.00;2.00;;;;;7.02;55.14;100599.97;4991919;27;45690;-74
2022/01/05 03:57:32;;;;;;;;;6.25;3.00;;;;;7.10;54.90;100616.59;4979528;27;45527;-71
2022/01/05 03:59:59;;;;;;;;;2.00;2.00;;;;;6.98;54.99;100606.88;4973329;28;45454;-72
2022/01/05 04:02:25;;;;;;;;;2.00;2.00;;;;;7.08;55.76;100630.44;4974003;28;46877;-71
2022/01/05 04:04:50;;;;;;;;;2.00;2.00;;;;;7.07;55.08;100631.28;4979163;27;45417;-71
2022/01/05 04:07:16;;;;;;;;;1.00;1.00;;;;;6.91;55.80;100596.34;4972623;28;45509;-71
2022/01/05 04:09:42;;;;;;;;;3.00;2.00;;;;;7.04;55.13;100632.13;4975708;28;45477;-72
2022/01/05 04:12:08;;;;;;;;;6.75;3.00;;;;;6.95;55.18;100614.66;4990278;28;45628;-71
2022/01/05 04:14:34;;;;;;;;;4.25;2.25;;;;;6.95;55.30;100624.16;4983356;28;45585;-72
2022/01/05 04:17:00;;;;;;;;;1.50;1.00;;;;;6.92;55.21;100629.34;4984518;27;45529;-69
2022/01/05 04:19:26;;;;;;;;;3.00;3.00;;;;;6.97;55.79;100643.28;4995119;27;45588;-72
2022/01/05 04:21:51;;;;;;;;;1.75;1.25;;;;;6.97;55.69;100648.50;4963501;28;46724;-69
2022/01/05 04:24:17;;;;;;;;;3.25;1.50;;;;;6.86;55.29;100630.13;4957143;28;45482;-71
2022/01/05 04:26:42;;;;;;;;;4.00;2.00;;;;;6.83;54.88;100613.56;4965727;27;45361;-70
2022/01/05 04:29:08;;;;;;;;;3.00;1.75;;;;;6.95;56.15;100645.00;4991985;27;45460;-70
2022/01/05 04:31:34;;;;;;;;;2.00;2.00;;;;;6.88;55.41;100641.44;4990344;27;45588;-69
2022/01/05 04:34:00;;;;;;;;;3.00;1.75;;;;;6.63;55.09;100600.25;4974901;28;45632;-71
2022/01/05 04:36:26;;;;;;;;;2.00;2.00;;;;;6.80;56.22;100632.63;4978530;28;46182;-73
2022/01/05 04:38:56;;;;;;;;;2.00;2.00;;;;;6.87;55.31;100664.84;4961520;28;45541;-69
2022/01/05 04:41:21;;;;;;;;;3.50;1.00;;;;;6.61;55.38;100597.63;4983689;27;45688;-72
2022/01/05 04:43:47;;;;;;;;;1.25;1.25;;;;;6.77;55.59;100632.59;4984860;27;45394;-72
2022/01/05 04:46:12;;;;;;;;;2.75;2.00;;;;;6.86;56.16;100655.25;4995013;27;45468;-71
2022/01/05 04:48:38;;;;;;;;;4.00;2.00;;;;;6.68;56.10;100638.50;4973158;28;45430;-72
2022/01/05 04:51:04;;;;;;;;;2.50;2.00;;;;;6.80;55.56;100656.91;4977986;28;46129;-69
2022/01/05 04:53:29;;;;;;;;;4.50;2.75;;;;;6.70;56.50;100652.44;4974276;28;45498;-72
2022/01/05 04:55:56;;;;;;;;;3.75;3.75;;;;;6.78;55.83;100674.25;4993157;28;45513;-69
2022/01/05 04:58:21;;;;;;;;;6.50;2.50;;;;;6.61;56.01;100657.47;4984972;28;45633;-72
2022/01/05 05:00:47;;;;;;;;;4.50;2.00;;;;;6.58;55.39;100653.09;4972301;28;46149;-70
2022/01/05 05:03:12;;;;;;;;;2.00;2.00;;;;;6.61;55.98;100648.81;4974387;28;45808;-70
2022/01/05 05:05:39;;;;;;;;;2.25;2.00;;;;;6.64;56.17;100670.53;4993583;27;45576;-73
2022/01/05 05:08:05;;;;;;;;;3.00;3.00;;;;;6.54;55.57;100651.28;5050507;28;45479;-70
2022/01/05 05:10:30;;;;;;;;;3.50;2.00;;;;;6.58;56.22;100657.44;4990695;27;46121;-72
2022/01/05 05:12:56;;;;;;;;;2.50;2.00;;;;;6.65;56.33;100684.44;4974624;28;45446;-72
2022/01/05 05:15:21;;;;;;;;;3.50;2.00;;;;;6.64;56.60;100693.97;4995594;27;45341;-71
2022/01/05 05:17:47;;;;;;;;;2.50;2.50;;;;;6.57;56.29;100685.19;4972235;28;45469;-70
2022/01/05 05:20:13;;;;;;;;;7.25;3.25;;;;;6.58;56.22;100675.66;4971605;28;45427;-71
2022/01/05 05:22:39;;;;;;;;;2.00;2.00;;;;;6.42;57.06;100658.88;4971706;28;45632;-71
2022/01/05 05:25:05;;;;;;;;;5.25;4.00;;;;;6.57;56.81;100686.91;4976744;28;45557;-69
2022/01/05 05:27:31;;;;;;;;;5.75;3.00;;;;;6.63;57.29;100701.75;4974477;28;45733;-72
2022/01/05 05:29:56;;;;;;;;;2.00;2.00;;;;;6.67;56.90;100700.94;4991010;28;45484;-69
2022/01/05 05:32:22;;;;;;;;;3.50;2.50;;;;;6.72;56.84;100708.00;4973385;27;45894;-70
2022/01/05 05:34:48;;;;;;;;;3.00;3.00;;;;;6.73;56.72;100708.88;4990827;27;45640;-71
2022/01/05 05:37:16;;;;;;;;;1.00;1.00;;;;;6.76;56.65;100717.63;4990421;27;45394;-69
2022/01/05 05:39:43;;;;;;;;;5.50;2.00;;;;;6.73;55.70;100709.72;4962185;28;47843;-70
2022/01/05 05:42:09;;;;;;;;;6.50;2.25;;;;;6.71;56.65;100716.63;4991375;28;45381;-70
2022/01/05 05:44:35;;;;;;;;;4.00;2.00;;;;;6.74;57.41;100721.91;4971833;28;45347;-73
2022/01/05 05:47:03;;;;;;;;;4.00;2.00;;;;;6.64;57.18;100713.91;4984156;27;45388;-70
2022/01/05 05:49:29;;;;;;;;;2.75;2.00;;;;;6.75;57.05;100743.63;4989077;27;47257;-71
2022/01/05 05:51:54;;;;;;;;;1.50;1.50;;;;;6.65;56.26;100729.56;4975124;27;45506;-71
2022/01/05 05:54:20;;;;;;;;;3.50;3.00;;;;;6.74;56.18;100745.34;4987238;27;45557;-72
2022/01/05 05:56:45;;;;;;;;;3.25;1.50;;;;;6.73;56.19;100738.38;4981171;27;45643;-70
2022/01/05 05:59:11;;;;;;;;;4.00;3.00;;;;;6.72;55.62;100741.84;4990703;27;45984;-72
2022/01/05 06:01:37;;;;;;;;;2.50;2.25;;;;;6.68;57.05;100737.41;4988108;27;45480;-71
2022/01/05 06:04:03;;;;;;;;;2.00;2.00;;;;;6.62;56.75;100731.22;4985320;28;45395;-70
2022/01/05 06:06:29;;;;;;;;;2.75;2.00;;;;;6.70;55.67;100742.66;4984163;28;45552;-73
2022/01/05 06:08:55;;;;;;;;;5.00;3.00;;;;;6.67;56.73;100750.38;4986045;27;45936;-73
2022/01/05 06:11:23;;;;;;;;;2.50;2.50;;;;;6.67;57.10;100753.00;4989535;27;45450;-73
2022/01/05 06:13:50;;;;;;;;;2.50;2.00;;;;;6.66;56.63;100746.91;4988189;28;45435;-73
2022/01/05 06:16:16;;;;;;;;;4.75;3.00;;;;;6.66;56.20;100739.09;4988601;27;45532;-72
2022/01/05 06:18:42;;;;;;;;;5.25;3.00;;;;;6.64;56.98;100756.41;4988860;27;46116;-72
2022/01/05 06:21:07;;;;;;;;;3.00;2.00;;;;;6.56;56.73;100755.41;4989418;28;45404;-70
2022/01/05 06:23:33;;;;;;;;;2.50;2.00;;;;;6.55;56.78;100757.16;4988302;28;45672;-72
2022/01/05 06:25:58;;;;;;;;;5.25;2.50;;;;;6.57;56.97;100744.16;4989821;27;45474;-70
2022/01/05 06:28:24;;;;;;;;;2.00;2.00;;;;;6.65;57.35;100757.31;4990215;28;46125;-74
2022/01/05 06:30:50;;;;;;;;;4.00;2.25;;;;;6.60;57.07;100759.84;4981921;28;45870;-75
2022/01/05 06:33:15;;;;;;;;;5.50;2.75;;;;;6.65;57.37;100758.19;4979496;28;45378;-72
2022/01/05 06:35:41;;;;;;;;;8.00;5.00;;;;;6.62;57.21;100765.94;4982411;27;45424;-70
2022/01/05 06:38:07;;;;;;;;;6.00;3.50;;;;;6.47;58.08;100752.63;4988000;27;45374;-72
2022/01/05 06:40:33;;;;;;;;;3.00;3.00;;;;;6.26;57.47;100720.16;4985904;27;45536;-71
2022/01/05 06:43:00;;;;;;;;;6.75;3.00;;;;;6.55;56.66;100779.69;4990120;28;45373;-77
2022/01/05 06:45:26;;;;;;;;;2.50;2.00;;;;;6.64;57.49;100784.19;4985231;27;45397;-75
2022/01/05 06:47:54;;;;;;;;;3.75;2.50;;;;;6.63;58.16;100785.91;4987643;27;46046;-73
2022/01/05 06:50:20;;;;;;;;;3.00;2.00;;;;;6.40;56.73;100753.38;4991595;27;45437;-70
2022/01/05 06:52:46;;;;;;;;;5.00;3.00;;;;;6.62;56.88;100791.97;4978839;27;45560;-73
2022/01/05 06:55:13;;;;;;;;;5.75;2.75;;;;;6.48;57.36;100772.63;4974049;28;45307;-73
2022/01/05 06:57:41;;;;;;;;;6.25;4.00;;;;;6.33;57.93;100761.03;4974642;28;45877;-75
2022/01/05 07:00:12;;;;;;;;;3.50;3.50;;;;;6.42;56.77;100780.28;4979041;28;45438;-71
2022/01/05 07:02:45;;;;;;;;;5.00;4.00;;;;;6.58;57.25;100817.06;4974028;28;45545;-71
2022/01/05 07:05:14;;;;;;;;;2.00;2.00;;;;;6.57;58.03;100811.81;4974045;28;45489;-72
2022/01/05 07:07:40;;;;;;;;;6.00;2.75;;;;;6.56;57.69;100816.13;4980020;28;46151;-74
2022/01/05 07:10:07;;;;;;;;;7.50;4.00;;;;;6.52;57.14;100819.53;4991070;27;45445;-76
2022/01/05 07:12:35;;;;;;;;;6.25;3.00;;;;;6.47;56.84;100809.88;4993674;27;45882;-76
2022/01/05 07:15:00;;;;;;;;;3.75;2.00;;;;;6.43;57.21;100811.56;4995652;27;45469;-75
2022/01/05 07:17:26;;;;;;;;;4.00;3.00;;;;;6.41;57.26;100822.75;4991898;27;46144;-72
2022/01/05 07:19:57;;;;;;;;;4.00;2.00;;;;;6.29;57.20;100813.88;4985124;27;45902;-71
2022/01/05 07:22:23;;;;;;;;;2.25;1.00;;;;;6.27;57.75;100812.97;4989875;28;45374;-72
2022/01/05 07:24:48;;;;;;;;;3.00;2.50;;;;;6.28;58.30;100832.91;4992850;27;45388;-72
2022/01/05 07:27:14;;;;;;;;;3.00;3.00;;;;;6.20;58.21;100839.69;4989784;27;45900;-77
2022/01/05 07:29:40;;;;;;;;;7.00;4.00;;;;;6.15;58.32;100838.72;4983905;27;45451;-72
2022/01/05 07:32:06;;;;;;;;;3.00;3.00;;;;;5.94;57.71;100806.19;4982777;27;45295;-72
2022/01/05 07:34:31;;;;;;;;;4.00;2.00;;;;;6.16;58.20;100854.34;4981293;27;45376;-75
2022/01/05 07:36:58;;;;;;;;;3.75;2.00;;;;;6.22;58.16;100861.41;4986045;28;46099;-73
2022/01/05 07:39:23;;;;;;;;;5.50;3.00;;;;;6.11;57.92;100840.34;4994740;27;45532;-77
2022/01/05 07:41:49;;;;;;;;;3.00;3.00;;;;;6.14;58.46;100857.75;4967704;28;45415;-73
2022/01/05 07:44:15;;;;;;;;;2.25;2.25;;;;;6.14;58.01;100856.00;4958202;28;45482;-72
2022/01/05 07:46:40;;;;;;;;;4.00;3.00;;;;;6.21;58.39;100874.38;4972520;28;45689;-71
2022/01/05 07:49:06;;;;;;;;;7.50;6.00;;;;;6.09;58.60;100860.25;4983747;28;45662;-71
2022/01/05 07:51:32;;;;;;;;;4.50;3.25;;;;;6.24;58.42;100875.34;4982068;27;45332;-72
2022/01/05 07:53:58;;;;;;;;;3.25;3.25;;;;;6.16;58.36;100856.06;4973159;28;45936;-71
2022/01/05 07:56:24;;;;;;;;;2.50;2.50;;;;;6.30;58.90;100880.66;4980834;27;45529;-70
2022/01/05 07:58:50;;;;;;;;;3.00;2.50;;;;;6.31;59.17;100881.53;4980658;27;45365;-71
2022/01/05 08:01:18;;;;;;;;;5.50;2.75;;;;;6.31;58.53;100874.63;4981131;28;45453;-71
2022/01/05 08:03:48;;;;;;;;;6.00;2.25;;;;;6.37;58.43;100886.88;4990381;27;45456;-71
2022/01/05 08:06:14;;;;;;;;;2.00;2.00;;;;;6.36;59.23;100878.19;4987874;27;45513;-70
2022/01/05 08:08:40;;;;;;;;;3.00;2.00;;;;;6.47;58.73;100893.13;4976883;27;45347;-70
2022/01/05 08:11:06;;;;;;;;;3.00;2.00;;;;;6.53;58.03;100899.38;4972499;27;45379;-70
2022/01/05 08:13:32;;;;;;;;;3.75;3.75;;;;;6.58;57.51;100886.44;4972870;28;45421;-71
2022/01/05 08:15:58;;;;;;;;;5.25;3.00;;;;;7.13;57.29;100900.53;4955240;28;46944;-72
2022/01/05 08:18:23;;;;;;;;;4.00;3.00;;;;;7.80;55.18;100876.47;4975068;28;45382;-70
2022/01/05 08:20:49;;;;;;;;;6.50;5.00;;;;;8.73;53.88;100895.19;4988470;27;45279;-69
2022/01/05 08:23:17;;;;;;;;;7.75;5.00;;;;;9.33;51.97;100888.88;4976881;28;45328;-72
2022/01/05 08:25:42;;;;;;;;;7.00;4.00;;;;;9.91;50.62;100859.69;4974786;28;45458;-72
2022/01/05 08:28:11;;;;;;;;;5.75;3.25;;;;;10.81;48.61;100900.34;4972228;28;45560;-72
2022/01/05 08:30:37;;;;;;;;;5.00;3.00;;;;;11.52;46.95;100897.88;4981434;27;45530;-74
2022/01/05 08:33:04;;;;;;;;;5.50;2.75;;;;;12.10;46.22;100892.63;4989909;27;45458;-72
2022/01/05 08:35:30;;;;;;;;;3.00;3.00;;;;;12.82;45.34;100909.94;4994829;27;45733;-71
2022/01/05 08:37:56;;;;;;;;;3.00;1.25;;;;;13.32;42.95;100864.09;4988211;27;45493;-73
2022/01/05 08:40:24;;;;;;;;;4.00;2.50;;;;;14.28;42.26;100909.72;4980327;27;45398;-72
2022/01/05 08:42:55;;;;;;;;;2.50;0.00;;;;;14.93;40.70;100890.56;4979117;27;45414;-71
2022/01/05 08:45:22;;;;;;;;;3.50;2.00;;;;;15.65;39.38;100900.03;4983998;27;46120;-71
2022/01/05 08:47:49;;;;;;;;;5.00;2.00;;;;;16.15;40.23;100902.75;4975573;28;45397;-70
2022/01/05 08:50:20;;;;;;;;;2.00;1.67;;;;;16.77;37.80;100892.69;5010293;27;45468;-74
2022/01/05 08:52:47;;;;;;;;;3.67;2.00;;;;;17.52;36.22;100908.69;4976814;28;45259;-70
2022/01/05 08:55:14;;;;;;;;;1.00;1.00;;;;;17.98;34.90;100889.03;4977882;28;45538;-70
2022/01/05 08:57:40;;;;;;;;;2.00;2.00;;;;;18.69;33.89;100905.66;4974256;28;45381;-74
2022/01/05 09:00:08;;;;;;;;;1.00;1.00;;;;;19.40;32.92;100897.31;4971817;28;45358;-74
2022/01/05 09:02:34;;;;;;;;;3.00;2.00;;;;;20.03;32.40;100902.38;4988648;27;45457;-73
2022/01/05 09:05:00;;;;;;;;;3.67;1.67;;;;;20.47;30.60;100903.41;4982183;28;46163;-71
2022/01/05 09:07:25;;;;;;;;;2.00;2.00;;;;;20.85;29.99;100881.66;4991432;28;45393;-71
2022/01/05 09:09:51;;;;;;;;;1.67;1.67;;;;;21.60;29.05;100914.22;4991597;27;45403;-71
2022/01/05 09:12:16;;;;;;;;;2.00;2.00;;;;;22.04;28.29;100886.59;4981657;27;45337;-71
2022/01/05 09:14:42;;;;;;;;;4.33;3.67;;;;;22.67;27.13;100902.53;4991147;27;46150;-75
2022/01/05 09:17:08;;;;;;;;;5.00;3.00;;;;;23.12;26.66;100908.50;4976192;28;45665;-71
2022/01/05 09:19:34;;;;;;;;;1.00;1.00;;;;;23.60;25.97;100923.09;4988823;27;45434;-70
2022/01/05 09:22:00;;;;;;;;;4.00;2.33;;;;;24.03;25.04;100921.81;4991155;27;45420;-73
2022/01/05 09:24:26;;;;;;;;;3.00;3.00;;;;;24.32;24.84;100898.03;4992323;27;45805;-71
2022/01/05 09:27:02;;;;;;;;;2.00;2.00;;;;;24.89;24.20;100914.63;4981013;27;45891;-71
2022/01/05 09:29:28;;;;;;;;;4.67;3.00;;;;;25.18;23.63;100899.63;4975944;28;45323;-72
2022/01/05 09:31:54;;;;;;;;;2.67;2.00;;;;;25.62;23.27;100922.16;4954319;28;45513;-75
2022/01/05 09:34:21;;;;;;;;;3.00;3.00;;;;;25.78;22.53;100906.03;4971700;28;46340;-73
2022/01/05 09:36:50;;;;;;;;;3.00;1.33;;;;;25.96;23.38;100896.94;4984583;27;45552;-73
2022/01/05 09:42:05;;;;;;;;;2.33;2.33;;;;;26.85;21.84;100942.50;4986157;27;45569;-72
2022/01/05 09:44:39;;;;;;;;;8.33;5.67;;;;;26.94;21.75;100910.66;4969273;28;47957;-74
2022/01/05 09:47:11;;;;;;;;;3.00;3.00;;;;;27.33;21.33;100942.19;4970163;28;45465;-73
2022/01/05 09:49:38;;;;;;;;;2.00;2.00;;;;;27.56;20.54;100932.59;4971379;28;45754;-74
2022/01/05 09:52:07;;;;;;;;;4.00;1.00;;;;;27.86;20.43;100950.41;4976472;28;45670;-72
2022/01/05 09:54:34;;;;;;;;;3.00;1.25;;;;;28.10;20.56;100947.88;4990926;27;45396;-73
2022/01/05 09:57:01;;;;;;;;;5.50;3.50;;;;;28.44;20.21;100964.41;4979750;28;45445;-74
2022/01/05 09:59:28;;;;;;;;;7.00;2.75;;;;;28.28;19.46;100965.44;4988089;27;45509;-74
2022/01/05 10:01:55;;;;;;;;;2.50;2.00;;;;;28.77;20.74;100974.69;4975156;28;46232;-75
2022/01/05 10:04:21;;;;;;;;;2.50;1.00;;;;;29.15;18.99;100971.97;4994869;27;46156;-73
2022/01/05 10:06:47;;;;;;;;;1.75;1.75;;;;;29.48;18.75;100983.13;4985450;27;45364;-71
2022/01/05 10:09:14;;;;;;;;;2.00;1.50;;;;;28.96;18.64;100968.84;4980688;27;45542;-74
2022/01/05 10:11:40;;;;;;;;;2.75;2.75;;;;;29.16;19.00;100973.72;4971989;28;45350;-72
2022/01/05 10:14:06;;;;;;;;;7.00;3.00;;;;;29.60;19.56;100972.25;4988052;27;45982;-72
2022/01/05 10:16:32;;;;;;;;;4.25;3.00;;;;;29.78;18.31;100963.78;4991842;27;45391;-74
2022/01/05 10:18:59;;;;;;;;;5.50;3.00;;;;;29.88;18.71;100975.63;4994844;27;45601;-74
2022/01/05 10:21:34;;;;;;;;;2.50;2.00;;;;;30.13;17.50;100969.22;4994154;27;45600;-72
2022/01/05 10:24:00;;;;;;;;;4.00;2.25;;;;;30.29;17.57;100984.28;4993521;27;45271;-72
2022/01/05 10:26:36;;;;;;;;;7.00;3.00;;;;;30.12;17.95;100972.91;4988941;27;45565;-74
2022/01/05 10:29:14;;;;;;;;;3.75;2.25;;;;;27.77;20.07;100967.16;4976463;28;45347;-72
2022/01/05 10:31:41;;;;;;;;;5.50;3.00;;;;;25.39;21.86;100987.84;4985235;27;45675;-71
2022/01/05 10:34:19;;;;;;;;;3.75;3.00;;;;;25.30;22.23;100980.31;4975478;27;46066;-73
2022/01/05 10:36:48;;;;;;;;;4.25;2.00;;;;;;;;4993032;27;45559;-72
2022/01/05 10:39:17;;;;;;;;;2.00;2.00;;;;;24.96;22.59;100991.03;4992053;27;45509;-71
2022/01/05 10:41:44;;;;;;;;;4.00;3.00;;;;;25.91;21.76;101002.78;4981981;28;45466;-73
2022/01/05 10:44:21;;;;;;;;;2.00;2.00;;;;;26.55;20.87;101015.16;4977810;28;45496;-73
2022/01/05 10:46:52;;;;;;;;;4.33;2.00;;;;;27.64;20.00;101007.44;4987941;27;45879;-71
2022/01/05 10:49:23;;;;;;;;;3.00;3.00;;;;;28.70;19.22;101001.19;4992212;27;45359;-74
2022/01/05 10:51:49;;;;;;;;;2.00;1.00;;;;;29.32;18.66;100996.84;4979976;28;45555;-74
2022/01/05 10:54:22;;;;;;;;;3.00;2.00;;;;;29.64;18.40;101009.81;4973473;28;45680;-73
2022/01/05 10:56:49;;;;;;;;;3.25;1.25;;;;;29.81;18.13;101017.56;4984240;27;45456;-73
2022/01/05 10:59:25;;;;;;;;;2.00;2.00;;;;;28.23;19.01;101007.16;4993035;27;45727;-70
2022/01/05 11:01:51;;;;;;;;;4.25;2.00;;;;;24.90;21.72;101004.75;4988651;27;45515;-72
2022/01/05 11:04:19;;;;;;;;;3.00;2.75;;;;;23.41;23.99;100997.97;4978798;28;45782;-73
2022/01/05 11:07:04;;;;;;;;;4.33;2.00;;;;;24.83;23.08;101002.50;4973277;28;45538;-72
2022/01/05 11:09:31;;;;;;;;;4.00;1.50;;;;;26.79;20.73;101003.81;4972957;27;45625;-72
2022/01/05 11:11:58;;;;;;;;;8.00;4.00;;;;;28.13;19.28;101002.38;4976415;27;45860;-75
2022/01/05 11:14:32;;;;;;;;;2.67;2.67;;;;;29.27;18.19;101017.91;4992051;27;45373;-73
2022/01/05 11:17:01;;;;;;;;;4.00;2.00;;;;;29.83;17.50;101012.03;4986406;28;45426;-72
2022/01/05 11:19:31;;;;;;;;;3.50;2.75;;;;;29.70;18.38;101015.66;4974899;28;45495;-71
2022/01/05 11:22:00;;;;;;;;;5.75;2.75;;;;;29.94;18.08;101010.25;4973308;28;45460;-74
2022/01/05 11:24:27;;;;;;;;;3.00;2.00;;;;;29.85;17.38;101002.88;4972483;28;45435;-72
2022/01/05 11:26:53;;;;;;;;;2.50;2.00;;;;;26.88;20.09;101015.84;4972698;28;45777;-72
2022/01/05 11:29:20;;;;;;;;;5.00;3.25;;;;;24.42;22.55;101018.91;4978496;28;45473;-73
2022/01/05 11:31:46;;;;;;;;;3.67;3.00;;;;;22.62;24.30;101006.84;4973293;28;45530;-73
2022/01/05 11:34:12;;;;;;;;;5.67;3.00;;;;;21.14;25.88;100971.06;4992273;27;45426;-73